createdAt,value
2023-01-13T00:02:14.486Z,71.11
2023-01-13T00:07:16.082Z,70.65
2023-01-13T00:12:17.654Z,70.99
2023-01-13T00:17:19.253Z,71.66
2023-01-13T00:22:20.842Z,72.12
2023-01-13T00:27:24.931Z,72.60
2023-01-13T00:32:26.813Z,72.75
2023-01-13T00:37:28.584Z,73.70
2023-01-13T00:42:48.385Z,75.26
2023-01-13T00:47:49.982Z,76.61
2023-01-13T00:52:51.593Z,78.31
2023-01-13T00:57:53.176Z,78.46
2023-01-13T01:02:54.795Z,78.91
2023-01-13T01:07:56.372Z,79.19
2023-01-13T01:12:57.964Z,78.80
2023-01-13T01:17:59.574Z,79.85
2023-01-13T01:23:01.186Z,79.74
2023-01-13T01:28:02.777Z,79.07
2023-01-13T01:33:05.300Z,78.61
2023-01-13T01:38:06.946Z,77.89
2023-01-13T01:43:34.681Z,76.92
2023-01-13T01:48:39.276Z,76.87
2023-01-13T01:53:41.805Z,76.42
2023-01-13T01:58:49.853Z,76.17
2023-01-13T02:03:59.669Z,75.89
2023-01-13T02:09:01.393Z,75.09
2023-01-13T02:14:02.992Z,74.61
2023-01-13T02:19:38.886Z,74.06
2023-01-13T02:24:59.262Z,73.44
2023-01-13T02:30:41.839Z,73.36
2023-01-13T02:35:51.809Z,73.52
2023-01-13T02:41:20.246Z,72.49
2023-01-13T02:46:28.774Z,72.30
2023-01-13T02:51:31.195Z,72.10
2023-01-13T02:56:37.412Z,72.08
2023-01-13T03:01:39.476Z,71.86
2023-01-13T03:07:00.699Z,72.04
2023-01-13T03:12:08.238Z,71.99
2023-01-13T03:17:42.398Z,71.39
2023-01-13T03:23:15.357Z,71.80
2023-01-13T03:28:25.597Z,70.88
2023-01-13T03:33:50.445Z,70.95
2023-01-13T03:38:54.647Z,70.71
2023-01-13T03:44:21.447Z,71.05
2023-01-13T03:49:27.280Z,71.26
2023-01-13T03:54:30.852Z,71.01
2023-01-13T03:59:36.384Z,70.75
2023-01-13T04:04:45.159Z,71.20
2023-01-13T04:09:51.714Z,71.00
2023-01-13T04:14:54.230Z,70.86
2023-01-13T04:19:55.817Z,71.39
2023-01-13T04:24:57.427Z,71.39
2023-01-13T04:29:59.071Z,70.86
2023-01-13T04:35:01.022Z,71.06
2023-01-13T04:40:02.679Z,71.52
2023-01-13T04:45:04.702Z,71.61
2023-01-13T04:50:06.593Z,71.68
2023-01-13T04:55:09.012Z,71.70
2023-01-13T05:00:12.940Z,71.60
2023-01-13T05:05:14.542Z,71.21
2023-01-13T05:10:16.538Z,71.45
2023-01-13T05:15:36.851Z,71.21
2023-01-13T05:20:38.551Z,71.54
2023-01-13T05:25:44.120Z,71.47
2023-01-13T05:30:49.838Z,71.28
2023-01-13T05:35:51.734Z,71.58
2023-01-13T05:41:12.112Z,71.26
2023-01-13T05:46:14.841Z,71.43
2023-01-13T05:51:16.580Z,71.43
2023-01-13T05:56:18.259Z,71.21
2023-01-13T06:01:20.000Z,71.38
2023-01-13T06:06:21.824Z,70.94
2023-01-13T06:11:23.457Z,71.67
2023-01-13T06:16:25.193Z,71.65
2023-01-13T06:21:26.817Z,71.62
2023-01-13T06:26:30.698Z,71.95
2023-01-13T06:31:36.565Z,72.44
2023-01-13T06:36:40.909Z,72.19
2023-01-13T06:42:01.072Z,71.57
2023-01-13T06:47:02.738Z,71.33
2023-01-13T06:52:05.218Z,70.97
2023-01-13T06:57:06.815Z,70.88
2023-01-13T07:02:08.585Z,70.65
2023-01-13T07:07:10.261Z,70.80
2023-01-13T07:12:12.271Z,70.47
2023-01-13T07:17:13.925Z,70.51
2023-01-13T07:22:15.550Z,70.25
2023-01-13T07:27:17.196Z,70.96
2023-01-13T07:32:19.167Z,71.12
2023-01-13T07:37:20.775Z,71.42
2023-01-13T07:42:40.793Z,71.50
2023-01-13T07:47:42.589Z,71.17
2023-01-13T07:52:44.230Z,70.99
2023-01-13T07:57:45.942Z,70.83
2023-01-13T08:02:47.629Z,70.92
2023-01-13T08:07:49.280Z,70.42
2023-01-13T08:13:09.251Z,70.79
2023-01-13T08:18:11.452Z,70.53
2023-01-13T08:23:13.159Z,70.06
2023-01-13T08:28:15.916Z,70.24
2023-01-13T08:33:17.674Z,69.84
2023-01-13T08:38:20.095Z,69.84
2023-01-13T08:43:21.813Z,69.88
2023-01-13T08:48:23.419Z,69.33
2023-01-13T08:53:25.016Z,69.10
2023-01-13T08:58:26.852Z,69.42
2023-01-13T09:03:28.517Z,69.02
2023-01-13T09:08:30.119Z,68.84
2023-01-13T09:13:31.821Z,68.53
2023-01-13T09:18:33.463Z,68.25
2023-01-13T09:23:35.116Z,66.44
2023-01-13T09:28:36.753Z,72.48
2023-01-13T09:33:57.147Z,77.31
2023-01-13T09:38:59.205Z,81.19
2023-01-13T09:44:01.874Z,82.24
2023-01-13T09:49:04.412Z,84.17
2023-01-13T09:54:16.524Z,85.23
2023-01-13T09:59:18.313Z,86.24
2023-01-13T10:04:20.129Z,85.62
2023-01-13T10:09:49.918Z,85.98
2023-01-13T10:14:55.833Z,84.56
2023-01-13T10:20:41.049Z,84.17
2023-01-13T10:25:58.093Z,84.12
2023-01-13T10:30:59.937Z,83.10
2023-01-13T10:36:15.276Z,82.54
2023-01-13T10:41:20.118Z,81.14
2023-01-13T10:46:21.810Z,79.87
2023-01-13T10:51:38.798Z,79.27
2023-01-13T10:56:42.365Z,79.71
2023-01-13T11:01:54.736Z,78.93
2023-01-13T11:06:56.983Z,79.02
2023-01-13T11:11:59.520Z,79.28
2023-01-13T11:17:24.897Z,80.24
2023-01-13T11:22:34.291Z,80.93
2023-01-13T11:27:41.751Z,80.80
2023-01-13T11:33:12.333Z,79.84
2023-01-13T11:38:52.338Z,79.46
2023-01-13T11:44:05.142Z,77.41
2023-01-13T11:49:07.017Z,76.88
2023-01-13T11:54:24.355Z,77.02
2023-01-13T11:59:38.101Z,76.97
2023-01-13T12:04:57.819Z,75.79
2023-01-13T12:10:13.204Z,76.56
2023-01-13T12:15:21.493Z,74.71
2023-01-13T12:20:38.196Z,73.33
2023-01-13T12:25:45.751Z,72.43
2023-01-13T12:30:54.551Z,71.61
2023-01-13T12:36:05.122Z,71.30
2023-01-13T12:41:10.386Z,71.21
2023-01-13T12:46:24.561Z,71.20
2023-01-13T12:51:34.216Z,71.27
2023-01-13T12:56:42.040Z,72.15
2023-01-13T13:01:45.310Z,71.80
2023-01-13T13:07:07.204Z,71.56
2023-01-13T13:12:59.918Z,71.72
2023-01-13T13:18:16.758Z,71.59
2023-01-13T13:23:33.470Z,71.56
2023-01-13T13:28:38.471Z,71.05
2023-01-13T13:33:52.885Z,71.27
2023-01-13T13:39:22.439Z,72.05
2023-01-13T13:44:49.655Z,71.55
2023-01-13T13:49:54.368Z,71.87
2023-01-13T13:54:59.695Z,71.91
2023-01-13T14:00:01.809Z,72.13
2023-01-13T14:05:18.152Z,71.15
2023-01-13T14:10:25.058Z,71.63
2023-01-13T14:15:35.132Z,71.41
2023-01-13T14:20:37.067Z,71.18
2023-01-13T14:25:47.390Z,70.79
2023-01-13T14:30:50.760Z,70.19
2023-01-13T14:36:04.717Z,70.54
2023-01-13T14:41:20.873Z,69.38
2023-01-13T14:46:25.143Z,69.72
2023-01-13T14:51:28.452Z,69.96
2023-01-13T14:56:53.831Z,69.90
2023-01-13T15:01:55.792Z,69.62
2023-01-13T15:06:58.135Z,69.73
2023-01-13T15:11:59.964Z,69.94
2023-01-13T15:17:01.612Z,70.82
2023-01-13T15:22:03.365Z,74.29
2023-01-13T15:27:18.905Z,77.86
2023-01-13T15:32:21.696Z,79.62
2023-01-13T15:37:25.545Z,80.46
2023-01-13T15:42:45.831Z,82.40
2023-01-13T15:47:48.286Z,83.05
2023-01-13T15:52:49.935Z,83.84
2023-01-13T15:57:51.618Z,83.98
2023-01-13T16:02:53.356Z,84.23
2023-01-13T16:07:55.034Z,85.48
2023-01-13T16:12:56.716Z,85.27
2023-01-13T16:18:01.015Z,84.61
2023-01-13T16:23:02.674Z,84.95
2023-01-13T16:28:04.322Z,84.03
2023-01-13T16:33:05.991Z,84.27
2023-01-13T16:38:14.044Z,84.41
2023-01-13T16:43:15.724Z,84.17
2023-01-13T16:48:20.106Z,81.45
2023-01-13T16:53:21.757Z,78.26
2023-01-13T16:58:23.429Z,76.10
2023-01-13T17:03:25.094Z,74.90
2023-01-13T17:08:26.903Z,76.11
2023-01-13T17:13:28.499Z,75.78
2023-01-13T17:18:30.215Z,75.30
2023-01-13T17:23:33.398Z,74.29
2023-01-13T17:28:35.094Z,72.05
2023-01-13T17:33:37.218Z,70.75
2023-01-13T17:38:38.835Z,70.48
2023-01-13T17:43:40.453Z,69.52
2023-01-13T17:48:42.043Z,69.56
2023-01-13T17:53:44.218Z,69.01
2023-01-13T17:58:46.772Z,69.24
2023-01-13T18:03:48.895Z,68.26
2023-01-13T18:08:50.875Z,69.20
2023-01-13T18:13:57.305Z,69.27
2023-01-13T18:19:19.845Z,72.72
2023-01-13T18:24:40.165Z,73.25
2023-01-13T18:29:41.785Z,73.99
2023-01-13T18:34:43.633Z,73.97
2023-01-13T18:39:45.311Z,71.79
2023-01-13T18:44:46.938Z,72.23
2023-01-13T18:49:48.915Z,70.86
2023-01-13T18:54:50.648Z,70.86
2023-01-13T18:59:52.524Z,70.38
2023-01-13T19:04:54.449Z,71.12
2023-01-13T19:09:56.180Z,69.81
2023-01-13T19:14:58.472Z,69.46
2023-01-13T19:20:00.117Z,68.69
2023-01-13T19:25:03.158Z,68.84
2023-01-13T19:30:06.014Z,69.03
2023-01-13T19:35:08.693Z,69.83
2023-01-13T19:40:10.920Z,69.62
2023-01-13T19:45:30.557Z,70.18
2023-01-13T19:50:36.278Z,69.63
2023-01-13T19:55:37.931Z,70.55
2023-01-13T20:00:46.996Z,70.82
2023-01-13T20:05:48.641Z,70.77
2023-01-13T20:10:50.271Z,70.63
2023-01-13T20:15:52.035Z,71.59
2023-01-13T20:20:53.774Z,71.67
2023-01-13T20:25:55.607Z,71.91
2023-01-13T20:30:57.216Z,72.61
2023-01-13T20:35:59.238Z,72.76
2023-01-13T20:41:21.849Z,71.94
2023-01-13T20:46:24.549Z,72.45
2023-01-13T20:51:26.253Z,72.73
2023-01-13T20:56:27.948Z,72.84
2023-01-13T21:01:30.198Z,73.03
2023-01-13T21:06:32.981Z,73.05
2023-01-13T21:11:53.777Z,73.51
2023-01-13T21:16:55.373Z,73.44
2023-01-13T21:21:57.309Z,73.94
2023-01-13T21:26:59.146Z,74.12
2023-01-13T21:32:00.852Z,73.78
2023-01-13T21:37:02.482Z,74.01
2023-01-13T21:42:23.057Z,73.14
2023-01-13T21:47:43.302Z,73.72
2023-01-13T21:52:45.750Z,73.67
2023-01-13T21:57:48.081Z,73.59
2023-01-13T22:02:50.445Z,74.21
2023-01-13T22:07:52.437Z,74.62
2023-01-13T22:12:55.655Z,75.04
2023-01-13T22:17:57.364Z,75.54
2023-01-13T22:22:59.337Z,75.41
2023-01-13T22:28:05.969Z,76.05
2023-01-13T22:33:07.542Z,75.46
2023-01-13T22:38:12.118Z,75.55
2023-01-13T22:43:14.229Z,75.94
2023-01-13T22:48:15.989Z,75.98
2023-01-13T22:53:18.083Z,75.44
2023-01-13T22:58:19.705Z,75.19
2023-01-13T23:03:22.129Z,74.65
2023-01-13T23:08:23.883Z,75.21
2023-01-13T23:13:25.508Z,75.52
2023-01-13T23:18:27.170Z,75.28
2023-01-13T23:23:28.792Z,76.57
2023-01-13T23:28:30.561Z,78.78
2023-01-13T23:33:32.334Z,78.72
2023-01-13T23:38:34.025Z,78.21
2023-01-13T23:43:35.910Z,77.98
2023-01-13T23:48:37.744Z,77.77
2023-01-13T23:53:44.925Z,77.30
2023-01-13T23:58:47.076Z,77.28
